sensor_id;sensor_type;location;lat;lon;timestamp;P1;durP1;ratioP1;P2;durP2;ratioP2
75073;SDS011;63652;51.526;5.080;2023-01-30T00:00:26;41.03;;;19.67;;
75073;SDS011;63652;51.526;5.080;2023-01-30T00:02:52;37.60;;;18.45;;
75073;SDS011;63652;51.526;5.080;2023-01-30T00:05:17;41.45;;;20.33;;
75073;SDS011;63652;51.526;5.080;2023-01-30T00:07:42;49.92;;;21.90;;
75073;SDS011;63652;51.526;5.080;2023-01-30T00:10:08;45.63;;;20.98;;
75073;SDS011;63652;51.526;5.080;2023-01-30T00:12:34;44.50;;;21.83;;
75073;SDS011;63652;51.526;5.080;2023-01-30T00:14:59;43.38;;;21.92;;
75073;SDS011;63652;51.526;5.080;2023-01-30T00:17:25;41.08;;;19.90;;
75073;SDS011;63652;51.526;5.080;2023-01-30T00:19:50;42.92;;;21.60;;
75073;SDS011;63652;51.526;5.080;2023-01-30T00:22:15;41.25;;;20.58;;
75073;SDS011;63652;51.526;5.080;2023-01-30T00:24:41;44.25;;;21.63;;
75073;SDS011;63652;51.526;5.080;2023-01-30T00:27:06;48.50;;;22.77;;
75073;SDS011;63652;51.526;5.080;2023-01-30T00:29:31;38.65;;;16.58;;
75073;SDS011;63652;51.526;5.080;2023-01-30T00:31:57;37.58;;;20.10;;
75073;SDS011;63652;51.526;5.080;2023-01-30T00:34:22;47.28;;;20.27;;
75073;SDS011;63652;51.526;5.080;2023-01-30T00:36:47;42.63;;;21.27;;
75073;SDS011;63652;51.526;5.080;2023-01-30T00:39:13;46.13;;;22.45;;
75073;SDS011;63652;51.526;5.080;2023-01-30T00:41:38;42.78;;;21.38;;
75073;SDS011;63652;51.526;5.080;2023-01-30T00:44:22;42.30;;;20.17;;
75073;SDS011;63652;51.526;5.080;2023-01-30T00:47:06;45.35;;;20.42;;
75073;SDS011;63652;51.526;5.080;2023-01-30T00:49:33;39.85;;;20.23;;
75073;SDS011;63652;51.526;5.080;2023-01-30T00:51:59;41.80;;;21.80;;
75073;SDS011;63652;51.526;5.080;2023-01-30T00:54:25;37.97;;;16.67;;
75073;SDS011;63652;51.526;5.080;2023-01-30T00:56:50;43.03;;;19.75;;
75073;SDS011;63652;51.526;5.080;2023-01-30T00:59:15;44.70;;;18.20;;
75073;SDS011;63652;51.526;5.080;2023-01-30T01:01:41;42.22;;;20.67;;
75073;SDS011;63652;51.526;5.080;2023-01-30T01:04:06;34.60;;;17.83;;
75073;SDS011;63652;51.526;5.080;2023-01-30T01:06:34;43.30;;;19.25;;
75073;SDS011;63652;51.526;5.080;2023-01-30T01:09:01;37.92;;;19.30;;
75073;SDS011;63652;51.526;5.080;2023-01-30T01:11:27;38.97;;;20.00;;
75073;SDS011;63652;51.526;5.080;2023-01-30T01:13:53;41.53;;;19.35;;
75073;SDS011;63652;51.526;5.080;2023-01-30T01:16:23;41.88;;;20.50;;
75073;SDS011;63652;51.526;5.080;2023-01-30T01:18:49;40.30;;;20.63;;
75073;SDS011;63652;51.526;5.080;2023-01-30T01:21:15;38.53;;;18.33;;
75073;SDS011;63652;51.526;5.080;2023-01-30T01:23:40;42.45;;;19.50;;
75073;SDS011;63652;51.526;5.080;2023-01-30T01:26:06;39.97;;;19.45;;
75073;SDS011;63652;51.526;5.080;2023-01-30T01:28:31;36.67;;;17.85;;
75073;SDS011;63652;51.526;5.080;2023-01-30T01:30:57;34.63;;;15.65;;
75073;SDS011;63652;51.526;5.080;2023-01-30T01:33:26;34.10;;;16.88;;
75073;SDS011;63652;51.526;5.080;2023-01-30T01:35:55;37.15;;;18.65;;
75073;SDS011;63652;51.526;5.080;2023-01-30T01:38:21;31.70;;;16.83;;
75073;SDS011;63652;51.526;5.080;2023-01-30T01:40:46;36.30;;;17.38;;
75073;SDS011;63652;51.526;5.080;2023-01-30T01:43:27;32.58;;;16.05;;
75073;SDS011;63652;51.526;5.080;2023-01-30T01:45:57;33.03;;;17.17;;
75073;SDS011;63652;51.526;5.080;2023-01-30T01:48:30;34.50;;;16.27;;
75073;SDS011;63652;51.526;5.080;2023-01-30T01:54:04;30.30;;;15.73;;
75073;SDS011;63652;51.526;5.080;2023-01-30T01:56:33;34.45;;;16.75;;
75073;SDS011;63652;51.526;5.080;2023-01-30T01:59:00;29.52;;;13.90;;
75073;SDS011;63652;51.526;5.080;2023-01-30T02:01:29;30.08;;;14.52;;
75073;SDS011;63652;51.526;5.080;2023-01-30T02:03:56;28.77;;;15.68;;
75073;SDS011;63652;51.526;5.080;2023-01-30T02:06:23;32.70;;;14.82;;
75073;SDS011;63652;51.526;5.080;2023-01-30T02:08:56;29.05;;;14.35;;
75073;SDS011;63652;51.526;5.080;2023-01-30T02:14:11;26.90;;;14.00;;
75073;SDS011;63652;51.526;5.080;2023-01-30T02:16:37;25.60;;;11.85;;
75073;SDS011;63652;51.526;5.080;2023-01-30T02:19:05;22.08;;;11.20;;
75073;SDS011;63652;51.526;5.080;2023-01-30T02:45:41;23.50;;;12.98;;
75073;SDS011;63652;51.526;5.080;2023-01-30T02:48:10;19.25;;;10.18;;
75073;SDS011;63652;51.526;5.080;2023-01-30T02:50:39;21.33;;;11.98;;
75073;SDS011;63652;51.526;5.080;2023-01-30T02:53:08;22.55;;;12.13;;
75073;SDS011;63652;51.526;5.080;2023-01-30T02:55:34;22.00;;;11.68;;
75073;SDS011;63652;51.526;5.080;2023-01-30T02:58:00;23.00;;;11.60;;
75073;SDS011;63652;51.526;5.080;2023-01-30T03:08:32;21.10;;;9.52;;
75073;SDS011;63652;51.526;5.080;2023-01-30T03:11:19;20.83;;;10.00;;
75073;SDS011;63652;51.526;5.080;2023-01-30T03:13:52;21.90;;;9.30;;
75073;SDS011;63652;51.526;5.080;2023-01-30T03:16:21;15.75;;;8.45;;
75073;SDS011;63652;51.526;5.080;2023-01-30T03:18:49;20.90;;;9.10;;
75073;SDS011;63652;51.526;5.080;2023-01-30T03:21:15;20.52;;;10.93;;
75073;SDS011;63652;51.526;5.080;2023-01-30T03:23:43;19.85;;;9.88;;
75073;SDS011;63652;51.526;5.080;2023-01-30T03:26:09;19.50;;;10.15;;
75073;SDS011;63652;51.526;5.080;2023-01-30T03:28:39;19.00;;;8.98;;
75073;SDS011;63652;51.526;5.080;2023-01-30T03:31:04;17.63;;;9.13;;
75073;SDS011;63652;51.526;5.080;2023-01-30T03:33:30;16.60;;;8.88;;
75073;SDS011;63652;51.526;5.080;2023-01-30T03:35:55;20.10;;;7.50;;
75073;SDS011;63652;51.526;5.080;2023-01-30T03:38:21;14.90;;;7.88;;
75073;SDS011;63652;51.526;5.080;2023-01-30T03:40:46;15.10;;;7.22;;
75073;SDS011;63652;51.526;5.080;2023-01-30T03:43:11;18.33;;;9.23;;
75073;SDS011;63652;51.526;5.080;2023-01-30T03:45:37;23.33;;;8.82;;
75073;SDS011;63652;51.526;5.080;2023-01-30T03:48:02;21.58;;;8.68;;
75073;SDS011;63652;51.526;5.080;2023-01-30T03:50:28;16.00;;;9.13;;
75073;SDS011;63652;51.526;5.080;2023-01-30T03:52:53;17.25;;;9.02;;
75073;SDS011;63652;51.526;5.080;2023-01-30T03:55:18;16.27;;;7.88;;
75073;SDS011;63652;51.526;5.080;2023-01-30T03:57:44;24.98;;;8.63;;
75073;SDS011;63652;51.526;5.080;2023-01-30T04:00:09;17.25;;;9.90;;
75073;SDS011;63652;51.526;5.080;2023-01-30T04:02:35;23.98;;;9.10;;
75073;SDS011;63652;51.526;5.080;2023-01-30T04:05:02;18.75;;;9.35;;
75073;SDS011;63652;51.526;5.080;2023-01-30T04:07:28;17.90;;;7.43;;
75073;SDS011;63652;51.526;5.080;2023-01-30T04:09:54;19.88;;;10.23;;
75073;SDS011;63652;51.526;5.080;2023-01-30T04:12:19;20.25;;;8.68;;
75073;SDS011;63652;51.526;5.080;2023-01-30T04:14:44;14.65;;;8.07;;
75073;SDS011;63652;51.526;5.080;2023-01-30T04:17:10;18.67;;;9.55;;
75073;SDS011;63652;51.526;5.080;2023-01-30T04:19:35;18.35;;;9.20;;
75073;SDS011;63652;51.526;5.080;2023-01-30T04:22:00;15.02;;;8.75;;
75073;SDS011;63652;51.526;5.080;2023-01-30T04:24:26;17.17;;;7.95;;
75073;SDS011;63652;51.526;5.080;2023-01-30T04:26:51;19.55;;;9.25;;
75073;SDS011;63652;51.526;5.080;2023-01-30T04:29:16;18.80;;;8.85;;
75073;SDS011;63652;51.526;5.080;2023-01-30T04:31:42;19.67;;;7.97;;
75073;SDS011;63652;51.526;5.080;2023-01-30T04:34:07;13.63;;;7.50;;
75073;SDS011;63652;51.526;5.080;2023-01-30T04:36:33;19.30;;;8.60;;
75073;SDS011;63652;51.526;5.080;2023-01-30T04:38:58;17.35;;;6.38;;
75073;SDS011;63652;51.526;5.080;2023-01-30T04:41:23;14.48;;;8.15;;
75073;SDS011;63652;51.526;5.080;2023-01-30T04:43:49;16.45;;;7.25;;
75073;SDS011;63652;51.526;5.080;2023-01-30T04:46:14;14.68;;;8.38;;
75073;SDS011;63652;51.526;5.080;2023-01-30T04:48:39;15.55;;;8.43;;
75073;SDS011;63652;51.526;5.080;2023-01-30T04:51:05;15.98;;;8.20;;
75073;SDS011;63652;51.526;5.080;2023-01-30T04:53:30;14.60;;;8.05;;
75073;SDS011;63652;51.526;5.080;2023-01-30T04:55:56;15.63;;;7.80;;
75073;SDS011;63652;51.526;5.080;2023-01-30T04:58:21;12.73;;;6.63;;
75073;SDS011;63652;51.526;5.080;2023-01-30T05:00:47;15.32;;;5.85;;
75073;SDS011;63652;51.526;5.080;2023-01-30T05:03:12;16.25;;;6.53;;
75073;SDS011;63652;51.526;5.080;2023-01-30T05:05:38;17.98;;;5.45;;
75073;SDS011;63652;51.526;5.080;2023-01-30T05:08:04;14.40;;;6.75;;
75073;SDS011;63652;51.526;5.080;2023-01-30T05:10:29;10.73;;;6.20;;
75073;SDS011;63652;51.526;5.080;2023-01-30T05:12:54;15.95;;;5.45;;
75073;SDS011;63652;51.526;5.080;2023-01-30T05:15:20;16.27;;;4.78;;
75073;SDS011;63652;51.526;5.080;2023-01-30T05:17:45;17.20;;;5.18;;
75073;SDS011;63652;51.526;5.080;2023-01-30T05:20:11;13.68;;;5.68;;
75073;SDS011;63652;51.526;5.080;2023-01-30T05:22:37;16.60;;;4.82;;
75073;SDS011;63652;51.526;5.080;2023-01-30T05:25:03;11.88;;;5.70;;
75073;SDS011;63652;51.526;5.080;2023-01-30T05:27:28;10.30;;;4.65;;
75073;SDS011;63652;51.526;5.080;2023-01-30T05:29:54;15.85;;;5.00;;
75073;SDS011;63652;51.526;5.080;2023-01-30T05:32:19;12.45;;;4.82;;
75073;SDS011;63652;51.526;5.080;2023-01-30T05:34:46;16.63;;;4.72;;
75073;SDS011;63652;51.526;5.080;2023-01-30T05:37:12;14.07;;;4.70;;
75073;SDS011;63652;51.526;5.080;2023-01-30T05:39:38;11.15;;;4.20;;
75073;SDS011;63652;51.526;5.080;2023-01-30T05:42:03;18.98;;;5.03;;
75073;SDS011;63652;51.526;5.080;2023-01-30T05:44:29;12.63;;;4.75;;
75073;SDS011;63652;51.526;5.080;2023-01-30T05:46:54;10.45;;;4.35;;
75073;SDS011;63652;51.526;5.080;2023-01-30T05:49:20;12.18;;;4.05;;
75073;SDS011;63652;51.526;5.080;2023-01-30T05:51:45;12.07;;;5.35;;
75073;SDS011;63652;51.526;5.080;2023-01-30T05:54:10;16.38;;;4.50;;
75073;SDS011;63652;51.526;5.080;2023-01-30T05:56:36;19.70;;;4.10;;
75073;SDS011;63652;51.526;5.080;2023-01-30T05:59:01;13.65;;;3.97;;
75073;SDS011;63652;51.526;5.080;2023-01-30T06:01:27;14.43;;;4.20;;
75073;SDS011;63652;51.526;5.080;2023-01-30T06:03:53;11.27;;;4.15;;
75073;SDS011;63652;51.526;5.080;2023-01-30T06:06:20;9.63;;;3.92;;
75073;SDS011;63652;51.526;5.080;2023-01-30T06:08:46;13.18;;;3.13;;
75073;SDS011;63652;51.526;5.080;2023-01-30T06:11:12;10.45;;;3.53;;
75073;SDS011;63652;51.526;5.080;2023-01-30T06:13:39;16.90;;;3.92;;
75073;SDS011;63652;51.526;5.080;2023-01-30T06:16:06;13.35;;;5.70;;
75073;SDS011;63652;51.526;5.080;2023-01-30T06:18:32;14.23;;;4.45;;
75073;SDS011;63652;51.526;5.080;2023-01-30T06:20:57;17.23;;;2.90;;
75073;SDS011;63652;51.526;5.080;2023-01-30T06:23:23;8.57;;;2.90;;
75073;SDS011;63652;51.526;5.080;2023-01-30T06:25:48;12.00;;;2.70;;
75073;SDS011;63652;51.526;5.080;2023-01-30T06:28:14;9.52;;;2.80;;
75073;SDS011;63652;51.526;5.080;2023-01-30T06:30:40;12.25;;;2.95;;
75073;SDS011;63652;51.526;5.080;2023-01-30T06:33:06;11.25;;;3.22;;
75073;SDS011;63652;51.526;5.080;2023-01-30T06:35:32;11.00;;;2.38;;
75073;SDS011;63652;51.526;5.080;2023-01-30T06:37:57;12.30;;;2.50;;
75073;SDS011;63652;51.526;5.080;2023-01-30T06:40:23;8.80;;;2.42;;
75073;SDS011;63652;51.526;5.080;2023-01-30T06:42:48;10.18;;;2.55;;
75073;SDS011;63652;51.526;5.080;2023-01-30T06:45:14;4.20;;;1.15;;
75073;SDS011;63652;51.526;5.080;2023-01-30T06:47:48;5.88;;;1.75;;
75073;SDS011;63652;51.526;5.080;2023-01-30T06:50:16;7.75;;;1.95;;
75073;SDS011;63652;51.526;5.080;2023-01-30T06:52:44;6.05;;;1.60;;
75073;SDS011;63652;51.526;5.080;2023-01-30T06:55:11;9.05;;;2.08;;
75073;SDS011;63652;51.526;5.080;2023-01-30T06:57:38;9.73;;;2.22;;
75073;SDS011;63652;51.526;5.080;2023-01-30T07:00:04;10.52;;;2.75;;
75073;SDS011;63652;51.526;5.080;2023-01-30T07:02:31;10.02;;;3.25;;
75073;SDS011;63652;51.526;5.080;2023-01-30T07:04:59;8.82;;;2.42;;
75073;SDS011;63652;51.526;5.080;2023-01-30T07:07:25;6.28;;;1.95;;
75073;SDS011;63652;51.526;5.080;2023-01-30T07:09:51;11.00;;;1.85;;
75073;SDS011;63652;51.526;5.080;2023-01-30T07:12:16;7.28;;;1.77;;
75073;SDS011;63652;51.526;5.080;2023-01-30T07:14:41;9.93;;;1.73;;
75073;SDS011;63652;51.526;5.080;2023-01-30T07:17:07;9.95;;;2.05;;
75073;SDS011;63652;51.526;5.080;2023-01-30T07:19:32;7.22;;;1.55;;
75073;SDS011;63652;51.526;5.080;2023-01-30T07:21:57;13.02;;;2.67;;
75073;SDS011;63652;51.526;5.080;2023-01-30T07:24:23;9.77;;;1.55;;
75073;SDS011;63652;51.526;5.080;2023-01-30T07:26:48;6.13;;;1.52;;
75073;SDS011;63652;51.526;5.080;2023-01-30T07:29:13;13.80;;;2.67;;
75073;SDS011;63652;51.526;5.080;2023-01-30T07:31:39;12.07;;;3.25;;
75073;SDS011;63652;51.526;5.080;2023-01-30T07:34:04;15.32;;;2.30;;
75073;SDS011;63652;51.526;5.080;2023-01-30T07:36:29;17.42;;;2.50;;
75073;SDS011;63652;51.526;5.080;2023-01-30T07:38:57;12.77;;;1.88;;
75073;SDS011;63652;51.526;5.080;2023-01-30T07:41:23;13.27;;;1.75;;
75073;SDS011;63652;51.526;5.080;2023-01-30T07:43:49;12.98;;;2.35;;
75073;SDS011;63652;51.526;5.080;2023-01-30T07:46:14;10.18;;;1.85;;
75073;SDS011;63652;51.526;5.080;2023-01-30T07:48:39;12.85;;;2.78;;
75073;SDS011;63652;51.526;5.080;2023-01-30T07:51:05;15.63;;;2.67;;
75073;SDS011;63652;51.526;5.080;2023-01-30T07:53:30;12.27;;;2.53;;
75073;SDS011;63652;51.526;5.080;2023-01-30T07:55:56;15.38;;;2.65;;
75073;SDS011;63652;51.526;5.080;2023-01-30T07:58:21;9.38;;;1.63;;
75073;SDS011;63652;51.526;5.080;2023-01-30T08:00:48;10.70;;;2.08;;
75073;SDS011;63652;51.526;5.080;2023-01-30T08:03:14;11.50;;;1.98;;
75073;SDS011;63652;51.526;5.080;2023-01-30T08:05:40;14.27;;;3.40;;
75073;SDS011;63652;51.526;5.080;2023-01-30T08:08:05;8.27;;;2.20;;
75073;SDS011;63652;51.526;5.080;2023-01-30T08:10:31;14.75;;;2.40;;
75073;SDS011;63652;51.526;5.080;2023-01-30T08:12:56;10.40;;;2.00;;
75073;SDS011;63652;51.526;5.080;2023-01-30T08:15:22;7.35;;;2.40;;
75073;SDS011;63652;51.526;5.080;2023-01-30T08:17:54;14.85;;;2.78;;
75073;SDS011;63652;51.526;5.080;2023-01-30T08:20:20;12.60;;;1.65;;
75073;SDS011;63652;51.526;5.080;2023-01-30T08:22:45;12.77;;;2.75;;
75073;SDS011;63652;51.526;5.080;2023-01-30T08:25:11;11.30;;;2.22;;
75073;SDS011;63652;51.526;5.080;2023-01-30T08:27:36;14.60;;;1.80;;
75073;SDS011;63652;51.526;5.080;2023-01-30T08:30:02;11.80;;;2.25;;
75073;SDS011;63652;51.526;5.080;2023-01-30T08:32:27;13.82;;;2.65;;
75073;SDS011;63652;51.526;5.080;2023-01-30T08:34:53;12.25;;;1.80;;
75073;SDS011;63652;51.526;5.080;2023-01-30T08:37:18;8.85;;;2.05;;
75073;SDS011;63652;51.526;5.080;2023-01-30T08:39:46;13.93;;;2.20;;
75073;SDS011;63652;51.526;5.080;2023-01-30T08:42:15;11.50;;;2.97;;
75073;SDS011;63652;51.526;5.080;2023-01-30T08:44:40;14.52;;;2.72;;
75073;SDS011;63652;51.526;5.080;2023-01-30T08:47:06;12.25;;;2.53;;
75073;SDS011;63652;51.526;5.080;2023-01-30T08:49:32;15.23;;;3.05;;
75073;SDS011;63652;51.526;5.080;2023-01-30T08:51:57;11.32;;;2.35;;
75073;SDS011;63652;51.526;5.080;2023-01-30T08:54:23;7.43;;;2.38;;
75073;SDS011;63652;51.526;5.080;2023-01-30T08:56:48;8.05;;;1.90;;
75073;SDS011;63652;51.526;5.080;2023-01-30T08:59:16;9.75;;;1.88;;
75073;SDS011;63652;51.526;5.080;2023-01-30T09:01:44;9.48;;;1.85;;
75073;SDS011;63652;51.526;5.080;2023-01-30T09:04:10;13.13;;;2.47;;
75073;SDS011;63652;51.526;5.080;2023-01-30T09:06:35;16.25;;;2.10;;
75073;SDS011;63652;51.526;5.080;2023-01-30T09:09:00;16.75;;;2.42;;
75073;SDS011;63652;51.526;5.080;2023-01-30T09:11:26;9.45;;;2.22;;
75073;SDS011;63652;51.526;5.080;2023-01-30T09:14:12;15.93;;;3.83;;
75073;SDS011;63652;51.526;5.080;2023-01-30T09:16:47;10.70;;;2.45;;
75073;SDS011;63652;51.526;5.080;2023-01-30T09:19:25;10.20;;;2.08;;
75073;SDS011;63652;51.526;5.080;2023-01-30T09:21:52;12.73;;;3.20;;
75073;SDS011;63652;51.526;5.080;2023-01-30T09:24:18;14.63;;;2.65;;
75073;SDS011;63652;51.526;5.080;2023-01-30T09:26:43;7.95;;;1.55;;
75073;SDS011;63652;51.526;5.080;2023-01-30T09:29:12;14.05;;;2.42;;
75073;SDS011;63652;51.526;5.080;2023-01-30T09:31:39;8.75;;;1.60;;
75073;SDS011;63652;51.526;5.080;2023-01-30T09:34:05;11.07;;;1.88;;
75073;SDS011;63652;51.526;5.080;2023-01-30T09:36:31;10.88;;;2.15;;
75073;SDS011;63652;51.526;5.080;2023-01-30T09:38:56;21.17;;;2.25;;
75073;SDS011;63652;51.526;5.080;2023-01-30T09:41:59;11.15;;;2.05;;
75073;SDS011;63652;51.526;5.080;2023-01-30T09:44:37;9.32;;;2.85;;
75073;SDS011;63652;51.526;5.080;2023-01-30T09:55:22;8.88;;;1.67;;
75073;SDS011;63652;51.526;5.080;2023-01-30T09:57:50;11.18;;;1.95;;
75073;SDS011;63652;51.526;5.080;2023-01-30T10:03:03;7.63;;;1.42;;
75073;SDS011;63652;51.526;5.080;2023-01-30T10:05:49;10.35;;;2.35;;
75073;SDS011;63652;51.526;5.080;2023-01-30T10:16:37;16.38;;;2.95;;
75073;SDS011;63652;51.526;5.080;2023-01-30T10:19:16;16.95;;;2.45;;
75073;SDS011;63652;51.526;5.080;2023-01-30T10:21:48;7.07;;;1.55;;
75073;SDS011;63652;51.526;5.080;2023-01-30T10:27:15;7.07;;;1.48;;
75073;SDS011;63652;51.526;5.080;2023-01-30T10:29:42;8.40;;;1.45;;
75073;SDS011;63652;51.526;5.080;2023-01-30T10:32:23;7.75;;;1.77;;
75073;SDS011;63652;51.526;5.080;2023-01-30T10:34:53;9.95;;;1.67;;
75073;SDS011;63652;51.526;5.080;2023-01-30T10:37:23;8.48;;;2.15;;
75073;SDS011;63652;51.526;5.080;2023-01-30T10:45:40;4.70;;;1.58;;
75073;SDS011;63652;51.526;5.080;2023-01-30T10:50:52;11.32;;;1.83;;
75073;SDS011;63652;51.526;5.080;2023-01-30T10:53:27;9.45;;;2.05;;
75073;SDS011;63652;51.526;5.080;2023-01-30T10:56:20;11.73;;;2.92;;
75073;SDS011;63652;51.526;5.080;2023-01-30T10:58:51;5.00;;;1.88;;
75073;SDS011;63652;51.526;5.080;2023-01-30T11:01:22;7.50;;;1.40;;
75073;SDS011;63652;51.526;5.080;2023-01-30T11:03:54;17.15;;;2.80;;
75073;SDS011;63652;51.526;5.080;2023-01-30T11:06:23;12.07;;;2.05;;
75073;SDS011;63652;51.526;5.080;2023-01-30T11:08:49;8.73;;;1.58;;
75073;SDS011;63652;51.526;5.080;2023-01-30T11:11:24;18.38;;;2.72;;
75073;SDS011;63652;51.526;5.080;2023-01-30T11:16:31;9.13;;;1.88;;
75073;SDS011;63652;51.526;5.080;2023-01-30T11:18:58;12.10;;;3.75;;
75073;SDS011;63652;51.526;5.080;2023-01-30T11:21:28;11.10;;;1.95;;
75073;SDS011;63652;51.526;5.080;2023-01-30T11:23:55;14.35;;;1.67;;
75073;SDS011;63652;51.526;5.080;2023-01-30T11:26:28;14.65;;;1.75;;
75073;SDS011;63652;51.526;5.080;2023-01-30T11:28:54;11.68;;;1.73;;
75073;SDS011;63652;51.526;5.080;2023-01-30T11:31:23;16.23;;;2.03;;
75073;SDS011;63652;51.526;5.080;2023-01-30T11:36:30;13.32;;;1.55;;
75073;SDS011;63652;51.526;5.080;2023-01-30T11:38:59;8.13;;;1.60;;
75073;SDS011;63652;51.526;5.080;2023-01-30T11:41:27;12.85;;;2.33;;
75073;SDS011;63652;51.526;5.080;2023-01-30T11:43:59;12.15;;;1.40;;
75073;SDS011;63652;51.526;5.080;2023-01-30T11:46:27;10.38;;;2.47;;
75073;SDS011;63652;51.526;5.080;2023-01-30T11:48:57;10.70;;;2.00;;
75073;SDS011;63652;51.526;5.080;2023-01-30T11:51:24;8.02;;;1.92;;
75073;SDS011;63652;51.526;5.080;2023-01-30T11:53:53;11.88;;;2.10;;
75073;SDS011;63652;51.526;5.080;2023-01-30T11:56:32;6.40;;;1.38;;
75073;SDS011;63652;51.526;5.080;2023-01-30T12:02:18;6.80;;;2.13;;
75073;SDS011;63652;51.526;5.080;2023-01-30T12:04:49;10.68;;;2.05;;
75073;SDS011;63652;51.526;5.080;2023-01-30T12:09:46;11.90;;;2.00;;
75073;SDS011;63652;51.526;5.080;2023-01-30T12:12:35;10.85;;;1.90;;
75073;SDS011;63652;51.526;5.080;2023-01-30T12:15:21;11.45;;;2.10;;
75073;SDS011;63652;51.526;5.080;2023-01-30T12:20:43;14.43;;;2.63;;
75073;SDS011;63652;51.526;5.080;2023-01-30T12:23:34;13.50;;;2.63;;
75073;SDS011;63652;51.526;5.080;2023-01-30T12:26:22;13.30;;;2.35;;
75073;SDS011;63652;51.526;5.080;2023-01-30T12:28:59;11.75;;;3.10;;
75073;SDS011;63652;51.526;5.080;2023-01-30T12:34:00;14.68;;;2.92;;
75073;SDS011;63652;51.526;5.080;2023-01-30T12:36:34;8.25;;;2.28;;
75073;SDS011;63652;51.526;5.080;2023-01-30T12:39:24;7.70;;;2.45;;
75073;SDS011;63652;51.526;5.080;2023-01-30T13:15:27;9.40;;;1.98;;
75073;SDS011;63652;51.526;5.080;2023-01-30T13:23:19;6.35;;;1.90;;
75073;SDS011;63652;51.526;5.080;2023-01-30T13:28:27;8.80;;;1.52;;
75073;SDS011;63652;51.526;5.080;2023-01-30T13:30:57;9.32;;;1.27;;
75073;SDS011;63652;51.526;5.080;2023-01-30T13:33:43;15.07;;;2.78;;
75073;SDS011;63652;51.526;5.080;2023-01-30T13:36:26;10.20;;;1.95;;
75073;SDS011;63652;51.526;5.080;2023-01-30T13:39:05;11.65;;;2.30;;
75073;SDS011;63652;51.526;5.080;2023-01-30T13:41:37;15.40;;;2.25;;
75073;SDS011;63652;51.526;5.080;2023-01-30T13:44:20;8.45;;;1.80;;
75073;SDS011;63652;51.526;5.080;2023-01-30T13:46:48;7.93;;;1.88;;
75073;SDS011;63652;51.526;5.080;2023-01-30T13:49:29;12.40;;;1.90;;
75073;SDS011;63652;51.526;5.080;2023-01-30T13:57:23;16.15;;;2.38;;
75073;SDS011;63652;51.526;5.080;2023-01-30T14:00:07;10.93;;;1.98;;
75073;SDS011;63652;51.526;5.080;2023-01-30T14:16:40;19.25;;;2.75;;
75073;SDS011;63652;51.526;5.080;2023-01-30T14:19:18;7.97;;;1.60;;
75073;SDS011;63652;51.526;5.080;2023-01-30T14:22:15;18.70;;;2.15;;
75073;SDS011;63652;51.526;5.080;2023-01-30T14:38:30;13.07;;;3.03;;
75073;SDS011;63652;51.526;5.080;2023-01-30T14:56:43;13.65;;;3.33;;
75073;SDS011;63652;51.526;5.080;2023-01-30T15:05:12;15.43;;;2.65;;
75073;SDS011;63652;51.526;5.080;2023-01-30T15:19:09;14.07;;;2.13;;
75073;SDS011;63652;51.526;5.080;2023-01-30T15:21:59;9.32;;;2.35;;
75073;SDS011;63652;51.526;5.080;2023-01-30T15:27:47;12.63;;;2.10;;
75073;SDS011;63652;51.526;5.080;2023-01-30T15:35:41;11.15;;;1.85;;
75073;SDS011;63652;51.526;5.080;2023-01-30T15:40:55;18.25;;;3.13;;
75073;SDS011;63652;51.526;5.080;2023-01-30T15:49:28;14.05;;;2.70;;
75073;SDS011;63652;51.526;5.080;2023-01-30T15:51:52;15.80;;;2.92;;
75073;SDS011;63652;51.526;5.080;2023-01-30T15:54:18;11.80;;;2.63;;
75073;SDS011;63652;51.526;5.080;2023-01-30T15:56:47;15.82;;;3.25;;
75073;SDS011;63652;51.526;5.080;2023-01-30T15:59:46;17.17;;;3.15;;
75073;SDS011;63652;51.526;5.080;2023-01-30T16:02:12;11.30;;;3.30;;
75073;SDS011;63652;51.526;5.080;2023-01-30T16:04:40;18.35;;;3.63;;
75073;SDS011;63652;51.526;5.080;2023-01-30T16:07:15;10.98;;;2.20;;
75073;SDS011;63652;51.526;5.080;2023-01-30T16:09:52;13.77;;;2.70;;
75073;SDS011;63652;51.526;5.080;2023-01-30T16:12:23;11.15;;;2.60;;
75073;SDS011;63652;51.526;5.080;2023-01-30T16:14:51;15.73;;;2.78;;
75073;SDS011;63652;51.526;5.080;2023-01-30T16:17:22;11.57;;;1.98;;
75073;SDS011;63652;51.526;5.080;2023-01-30T16:19:49;15.65;;;3.72;;
75073;SDS011;63652;51.526;5.080;2023-01-30T16:22:15;14.23;;;2.03;;
75073;SDS011;63652;51.526;5.080;2023-01-30T16:24:43;16.85;;;2.25;;
75073;SDS011;63652;51.526;5.080;2023-01-30T16:27:44;18.17;;;3.63;;
75073;SDS011;63652;51.526;5.080;2023-01-30T16:30:04;13.48;;;2.95;;
75073;SDS011;63652;51.526;5.080;2023-01-30T16:32:33;15.63;;;2.47;;
75073;SDS011;63652;51.526;5.080;2023-01-30T16:37:47;19.42;;;3.35;;
75073;SDS011;63652;51.526;5.080;2023-01-30T16:40:14;18.55;;;2.60;;
75073;SDS011;63652;51.526;5.080;2023-01-30T16:42:52;12.52;;;2.55;;
75073;SDS011;63652;51.526;5.080;2023-01-30T16:50:44;19.38;;;4.38;;
75073;SDS011;63652;51.526;5.080;2023-01-30T16:53:14;12.38;;;2.75;;
75073;SDS011;63652;51.526;5.080;2023-01-30T16:55:52;15.77;;;2.17;;
75073;SDS011;63652;51.526;5.080;2023-01-30T16:58:20;13.13;;;2.60;;
75073;SDS011;63652;51.526;5.080;2023-01-30T17:00:48;15.10;;;2.75;;
75073;SDS011;63652;51.526;5.080;2023-01-30T17:03:30;18.33;;;3.67;;
75073;SDS011;63652;51.526;5.080;2023-01-30T17:05:59;17.70;;;3.55;;
75073;SDS011;63652;51.526;5.080;2023-01-30T17:08:37;18.70;;;4.63;;
75073;SDS011;63652;51.526;5.080;2023-01-30T17:11:15;12.65;;;2.83;;
75073;SDS011;63652;51.526;5.080;2023-01-30T17:16:45;25.00;;;3.65;;
75073;SDS011;63652;51.526;5.080;2023-01-30T17:19:12;23.33;;;3.00;;
75073;SDS011;63652;51.526;5.080;2023-01-30T17:21:47;13.88;;;2.40;;
75073;SDS011;63652;51.526;5.080;2023-01-30T17:24:15;15.50;;;2.63;;
75073;SDS011;63652;51.526;5.080;2023-01-30T17:26:41;12.20;;;2.47;;
75073;SDS011;63652;51.526;5.080;2023-01-30T17:29:16;17.95;;;3.58;;
75073;SDS011;63652;51.526;5.080;2023-01-30T17:31:48;16.38;;;3.88;;
75073;SDS011;63652;51.526;5.080;2023-01-30T17:34:14;14.20;;;3.20;;
75073;SDS011;63652;51.526;5.080;2023-01-30T17:36:40;20.33;;;3.38;;
75073;SDS011;63652;51.526;5.080;2023-01-30T17:39:10;16.88;;;3.55;;
75073;SDS011;63652;51.526;5.080;2023-01-30T17:41:40;10.18;;;3.28;;
75073;SDS011;63652;51.526;5.080;2023-01-30T17:44:06;22.85;;;3.17;;
75073;SDS011;63652;51.526;5.080;2023-01-30T17:46:39;20.55;;;3.20;;
75073;SDS011;63652;51.526;5.080;2023-01-30T17:49:25;16.88;;;2.88;;
75073;SDS011;63652;51.526;5.080;2023-01-30T17:51:51;13.95;;;3.35;;
75073;SDS011;63652;51.526;5.080;2023-01-30T17:54:17;19.70;;;3.00;;
75073;SDS011;63652;51.526;5.080;2023-01-30T17:56:44;16.98;;;3.13;;
75073;SDS011;63652;51.526;5.080;2023-01-30T17:59:12;11.07;;;3.10;;
75073;SDS011;63652;51.526;5.080;2023-01-30T18:01:39;12.73;;;2.90;;
75073;SDS011;63652;51.526;5.080;2023-01-30T18:04:05;19.10;;;3.70;;
75073;SDS011;63652;51.526;5.080;2023-01-30T18:06:31;19.10;;;3.45;;
75073;SDS011;63652;51.526;5.080;2023-01-30T18:08:57;21.30;;;3.42;;
75073;SDS011;63652;51.526;5.080;2023-01-30T18:11:22;14.98;;;2.35;;
75073;SDS011;63652;51.526;5.080;2023-01-30T18:13:47;14.90;;;2.90;;
75073;SDS011;63652;51.526;5.080;2023-01-30T18:16:14;20.42;;;4.40;;
75073;SDS011;63652;51.526;5.080;2023-01-30T18:18:43;19.45;;;2.88;;
75073;SDS011;63652;51.526;5.080;2023-01-30T18:21:09;21.95;;;2.97;;
75073;SDS011;63652;51.526;5.080;2023-01-30T18:23:34;17.25;;;2.67;;